Wetterdaten: aktuell Sonntag, 04.06.2023 03:10
Datum Zeit Temp. A. Temp. A. min Feuchte A. Luftdruck Regen Wind Richtung Richtung Sonnenschein Solar Taupunkt Windchill Windben
04.06.2023 03:10 16,9 C 16,9 C 52 % 1015,2 hPa 0,0 l/m 0,2 km/h (0 Bft) S-SO 164 0 min 0 W/m 7,0 C 16,9 C 4,8 km/h (1 Bft)
04.06.2023 03:05 17,0 C 17,0 C 52 % 1015,2 hPa 0,0 l/m 0,0 km/h (0 Bft) SO 129 0 min 0 W/m 7,1 C 17,0 C 3,2 km/h (1 Bft)
04.06.2023 03:00 17,1 C 17,1 C 51 % 1015,2 hPa 0,0 l/m 0,0 km/h (0 Bft) SW 231 0 min 0 W/m 6,9 C 17,1 C 1,6 km/h (1 Bft)
04.06.2023 02:55 17,2 C 17,1 C 51 % 1015,2 hPa 0,0 l/m 0,0 km/h (0 Bft) S 188 0 min 0 W/m 7,0 C 17,2 C 0,0 km/h (0 Bft)
04.06.2023 02:50 17,2 C 17,2 C 50 % 1015,1 hPa 0,0 l/m 0,0 km/h (0 Bft) SO 146 0 min 0 W/m 6,7 C 17,2 C 0,0 km/h (0 Bft)
04.06.2023 02:45 17,2 C 17,2 C 49 % 1015,1 hPa 0,0 l/m 0,0 km/h (0 Bft) SO 146 0 min 0 W/m 6,4 C 17,2 C 1,6 km/h (1 Bft)
04.06.2023 02:40 17,2 C 17,2 C 49 % 1015,0 hPa 0,0 l/m 0,0 km/h (0 Bft) S-SO 155 0 min 0 W/m 6,4 C 17,2 C 0,0 km/h (0 Bft)
04.06.2023 02:35 17,2 C 17,2 C 48 % 1015,0 hPa 0,0 l/m 0,0 km/h (0 Bft) S-SO 168 0 min 0 W/m 6,1 C 17,2 C 0,0 km/h (0 Bft)
04.06.2023 02:30 17,2 C 17,2 C 49 % 1015,0 hPa 0,0 l/m 0,0 km/h (0 Bft) W-SW 240 0 min 0 W/m 6,4 C 17,2 C 0,0 km/h (0 Bft)
04.06.2023 02:25 17,2 C 17,2 C 49 % 1014,9 hPa 0,0 l/m 0,0 km/h (0 Bft) S 180 0 min 0 W/m 6,4 C 17,2 C 0,0 km/h (0 Bft)
04.06.2023 02:20 17,2 C 17,2 C 48 % 1014,9 hPa 0,0 l/m 0,0 km/h (0 Bft) S-SW 205 0 min 0 W/m 6,1 C 17,2 C 1,6 km/h (1 Bft)
04.06.2023 02:15 17,2 C 17,1 C 51 % 1015,0 hPa 0,0 l/m 0,0 km/h (0 Bft) SO 136 0 min 0 W/m 7,0 C 17,2 C 1,6 km/h (1 Bft)
04.06.2023 02:10 17,1 C 17,1 C 50 % 1015,0 hPa 0,0 l/m 0,4 km/h (0 Bft) S-SW 192 0 min 0 W/m 6,6 C 17,1 C 6,4 km/h (2 Bft)
04.06.2023 02:05 17,1 C 16,9 C 51 % 1015,1 hPa 0,0 l/m 0,3 km/h (0 Bft) SO 145 0 min 0 W/m 6,9 C 17,1 C 3,2 km/h (1 Bft)
04.06.2023 02:00 16,9 C 16,9 C 51 % 1015,0 hPa 0,0 l/m 0,0 km/h (0 Bft) S 182 0 min 0 W/m 6,7 C 16,9 C 0,0 km/h (0 Bft)
04.06.2023 01:55 16,9 C 16,7 C 51 % 1015,0 hPa 0,0 l/m 0,0 km/h (0 Bft) S 173 0 min 0 W/m 6,7 C 16,9 C 1,6 km/h (1 Bft)
04.06.2023 01:50 16,8 C 16,7 C 51 % 1014,9 hPa 0,0 l/m 0,0 km/h (0 Bft) SW 234 0 min 0 W/m 6,6 C 16,8 C 0,0 km/h (0 Bft)
04.06.2023 01:45 16,7 C 16,6 C 51 % 1014,9 hPa 0,0 l/m 0,0 km/h (0 Bft) SW 224 0 min 0 W/m 6,5 C 16,7 C 0,0 km/h (0 Bft)
04.06.2023 01:40 16,6 C 16,5 C 54 % 1014,9 hPa 0,0 l/m 0,0 km/h (0 Bft) W-SW 243 0 min 0 W/m 7,3 C 16,6 C 0,0 km/h (0 Bft)
04.06.2023 01:35 16,5 C 16,4 C 54 % 1015,0 hPa 0,0 l/m 0,0 km/h (0 Bft) SO 132 0 min 0 W/m 7,2 C 16,5 C 0,0 km/h (0 Bft)
04.06.2023 01:30 16,4 C 16,4 C 55 % 1015,1 hPa 0,0 l/m 0,2 km/h (0 Bft) SW 220 0 min 0 W/m 7,3 C 16,4 C 1,6 km/h (1 Bft)
04.06.2023 01:25 16,4 C 16,3 C 54 % 1015,1 hPa 0,0 l/m 0,0 km/h (0 Bft) W-SW 250 0 min 0 W/m 7,1 C 16,4 C 1,6 km/h (1 Bft)
04.06.2023 01:20 16,3 C 16,3 C 55 % 1015,1 hPa 0,0 l/m 0,2 km/h (0 Bft) S-SW 208 0 min 0 W/m 7,2 C 16,3 C 4,8 km/h (1 Bft)
04.06.2023 01:15 16,3 C 16,3 C 56 % 1015,1 hPa 0,0 l/m 0,0 km/h (0 Bft) S 184 0 min 0 W/m 7,5 C 16,3 C 0,0 km/h (0 Bft)
04.06.2023 01:10 16,4 C 16,3 C 57 % 1015,0 hPa 0,0 l/m 0,1 km/h (0 Bft) S-SW 197 0 min 0 W/m 7,9 C 16,4 C 1,6 km/h (1 Bft)
04.06.2023 01:05 16,4 C 16,4 C 57 % 1015,0 hPa 0,0 l/m 0,1 km/h (0 Bft) SW 223 0 min 0 W/m 7,9 C 16,4 C 3,2 km/h (1 Bft)
04.06.2023 01:00 16,5 C 16,4 C 58 % 1015,0 hPa 0,0 l/m 0,0 km/h (0 Bft) W-SW 258 0 min 0 W/m 8,2 C 16,5 C 1,6 km/h (1 Bft)
04.06.2023 00:55 16,6 C 16,6 C 59 % 1015,1 hPa 0,0 l/m 0,3 km/h (0 Bft) S-SW 194 0 min 0 W/m 8,6 C 16,6 C 3,2 km/h (1 Bft)
04.06.2023 00:50 16,7 C 16,7 C 60 % 1015,0 hPa 0,0 l/m 0,0 km/h (0 Bft) O 96 0 min 0 W/m 8,9 C 16,7 C 0,0 km/h (0 Bft)
04.06.2023 00:45 16,8 C 16,8 C 60 % 1015,1 hPa 0,0 l/m 0,0 km/h (0 Bft) O-NO 62 0 min 0 W/m 9,0 C 16,8 C 0,0 km/h (0 Bft)
04.06.2023 00:40 16,9 C 16,9 C 60 % 1015,0 hPa 0,0 l/m 0,0 km/h (0 Bft) O-NO 63 0 min 0 W/m 9,1 C 16,9 C 1,6 km/h (1 Bft)
04.06.2023 00:35 17,1 C 17,1 C 60 % 1015,0 hPa 0,0 l/m 0,0 km/h (0 Bft) NO 42 0 min 0 W/m 9,3 C 17,1 C 0,0 km/h (0 Bft)
04.06.2023 00:30 17,2 C 17,2 C 59 % 1015,0 hPa 0,0 l/m 0,0 km/h (0 Bft) S-SW 199 0 min 0 W/m 9,1 C 17,2 C 0,0 km/h (0 Bft)
04.06.2023 00:25 17,3 C 17,3 C 58 % 1015,0 hPa 0,0 l/m 0,0 km/h (0 Bft) S-SW 199 0 min 0 W/m 9,0 C 17,3 C 0,0 km/h (0 Bft)
04.06.2023 00:20 17,6 C 17,6 C 57 % 1015,1 hPa 0,0 l/m 0,0 km/h (0 Bft) S-SW 198 0 min 0 W/m 9,0 C 17,6 C 0,0 km/h (0 Bft)
04.06.2023 00:15 17,7 C 17,7 C 57 % 1015,1 hPa 0,0 l/m 0,0 km/h (0 Bft) S-SW 198 0 min 0 W/m 9,1 C 17,7 C 0,0 km/h (0 Bft)
04.06.2023 00:10 17,9 C 17,9 C 57 % 1015,1 hPa 0,0 l/m 0,0 km/h (0 Bft) S-SW 198 0 min 0 W/m 9,3 C 17,9 C 0,0 km/h (0 Bft)
04.06.2023 00:05 18,1 C 18,0 C 56 % 1015,1 hPa 0,0 l/m 0,0 km/h (0 Bft) S-SW 198 0 min 0 W/m 9,2 C 18,1 C 0,0 km/h (0 Bft)
04.06.2023 00:00 18,2 C 18,2 C 56 % 1015,0 hPa 0,0 l/m 0,0 km/h (0 Bft) S-SW 198 0 min 0 W/m 9,3 C 18,2 C 0,0 km/h (0 Bft)
_ Min-Zeit 01:10 01:10 02:20 01:40 - 00:00 - - - - 02:20 01:15 00:00
Minimum _ 16,3 C 16,3 C 48 % 1014,9 hPa - 0,0 km/h (0 Bft) - - - - 6,1 C 16,3 C 0,0 km/h (0 Bft)
_ Max-Zeit 00:00 00:00 00:35 02:55 00:00 02:10 - - 00:00 00:00 00:00 00:00 02:10
Maximum _ 18,4 C 18,2 C 60 % 1015,2 hPa 0,0 l/m 0,4 km/h
S-SW (0 Bft)
- - 0 min 0 W/m 9,3 C 18,2 C 6,4 km/h
S-SO (2 Bft)
Durchschnitt _ 17,0 C 17,0 C 54 % 1015,0 hPa #0,0 l/m 0,0 km/h (0 Bft) N - #0 min. 0 W/m 7,6 C 17,0 C 1,1 km/h (1 Bft)